TimeMDT,TemperatureF,Dew PointF,Humidity,Sea Level PressureIn,VisibilityMPH,Wind Direction,Wind SpeedMPH,Gust SpeedMPH,PrecipitationIn,Events,Conditions,WindDirDegrees,DateUTC
12:53 AM,71.1,48.0,44,29.81,10.0,North,10.4,-,N/A,,Clear,360,2013-08-21 06:53:00
1:53 AM,68.0,46.9,47,29.81,10.0,WSW,5.8,-,N/A,,Clear,240,2013-08-21 07:53:00
2:53 AM,66.9,46.9,49,29.81,10.0,NW,8.1,-,N/A,,Clear,310,2013-08-21 08:53:00
3:53 AM,64.9,48.9,56,29.82,10.0,NNW,8.1,-,N/A,,Clear,330,2013-08-21 09:53:00
4:53 AM,64.0,46.9,54,29.84,10.0,West,3.5,-,N/A,,Clear,260,2013-08-21 10:53:00
5:53 AM,63.0,46.9,56,29.86,10.0,Calm,Calm,-,N/A,,Clear,0,2013-08-21 11:53:00
6:53 AM,62.1,46.9,58,29.88,10.0,West,5.8,-,N/A,,Clear,260,2013-08-21 12:53:00
7:53 AM,69.1,46.9,45,29.91,10.0,WSW,6.9,-,N/A,,Clear,250,2013-08-21 13:53:00
8:53 AM,73.9,46.9,38,29.90,10.0,WSW,6.9,-,N/A,,Clear,250,2013-08-21 14:53:00
9:53 AM,84.0,43.0,24,29.88,10.0,WNW,4.6,-,N/A,,Clear,290,2013-08-21 15:53:00
10:53 AM,88.0,45.0,22,29.88,10.0,NNW,5.8,-,N/A,,Clear,340,2013-08-21 16:53:00
11:53 AM,90.0,45.0,21,29.87,10.0,Variable,4.6,-,N/A,,Clear,0,2013-08-21 17:53:00
12:53 PM,93.0,44.1,18,29.85,10.0,SSE,8.1,-,N/A,,Clear,160,2013-08-21 18:53:00
1:53 PM,93.0,39.9,16,29.84,10.0,Calm,Calm,-,N/A,,Clear,0,2013-08-21 19:53:00
2:53 PM,95.0,42.1,16,29.82,10.0,Variable,5.8,17.3,N/A,,Clear,0,2013-08-21 20:53:00
3:53 PM,95.0,39.0,14,29.81,10.0,SSE,11.5,-,N/A,,Clear,150,2013-08-21 21:53:00
4:53 PM,91.9,39.9,16,29.82,10.0,South,8.1,-,N/A,,Clear,180,2013-08-21 22:53:00
5:53 PM,90.0,44.1,20,29.84,10.0,NW,13.8,-,N/A,,Clear,310,2013-08-21 23:53:00
6:05 PM,87.8,44.6,22,30.05,10.0,NW,19.6,27.6,N/A,,Clear,310,2013-08-22 00:05:00
6:53 PM,88.0,43.0,21,29.84,10.0,NW,18.4,-,N/A,,Clear,320,2013-08-22 00:53:00
7:53 PM,84.9,46.0,26,29.85,10.0,NNW,13.8,-,N/A,,Clear,340,2013-08-22 01:53:00
8:53 PM,82.9,45.0,26,29.89,10.0,West,6.9,-,N/A,,Clear,260,2013-08-22 02:53:00
9:53 PM,82.0,44.1,26,29.88,10.0,West,10.4,-,N/A,,Clear,270,2013-08-22 03:53:00
10:53 PM,78.1,46.0,32,29.88,10.0,SSW,4.6,-,N/A,,Clear,210,2013-08-22 04:53:00
11:53 PM,75.0,48.9,40,29.88,10.0,SW,8.1,-,N/A,,Clear,230,2013-08-22 05:53:00